ホバート国際空港の過去48時間の天気

ホバート国際空港 (Hobart Airport)

現在時刻: 2/22 17:57 AEDT (2/22 06:57 UTC) 以下の時間は現地時間です。

過去48時間のMETAR気象情報
時間 風向 風速(m/s) 視程 気温(℃) 湿度(%) 気圧(hPa) 天気現象
22 17:00 南南東 8 10km以上 20 49 1021
22 16:30 南南東 8 10km以上 21 35 1021
22 16:00 南南東 9 10km以上 21 35 1021
22 14:00 南東 7 10km以上 20 37 1022
22 13:00 南南東 6 10km以上 20 37 1023
22 12:30 4 10km以上 20 30 1023
22 12:00 北北西 4 10km以上 19 32 1023
22 11:00 5 10km以上 18 34 1024
22 10:30 北西 5 10km以上 16 42 1024
22 10:00 北北西 5 10km以上 15 45 1024
22 08:30 北西 4 10km以上 11 62 1024
22 08:00 北西 3 10km以上 10 66 1024
22 07:00 北北西 4 10km以上 8 81 1024
22 06:30 北西 3 10km以上 8 76 1023
22 05:30 北西 3 10km以上 8 71 1023
22 05:00 西北西 4 10km以上 8 76 1023
22 04:30 北北西 4 10km以上 8 81 1023
22 04:00 北北西 4 10km以上 9 71 1023
22 03:30 北西 4 10km以上 9 71 1023
22 03:00 北西 4 10km以上 9 76 1023
22 02:30 北西 3 10km以上 9 76 1023
22 02:00 北西 4 10km以上 9 76 1023
22 01:30 北北西 2 10km以上 10 71 1023
22 01:00 北西 4 10km以上 10 71 1023
22 00:30 北西 4 10km以上 10 76 1023
22 00:00 北西 3 10km以上 11 67 1023
21 23:30 北西 2 10km以上 11 67 1023
21 23:00 西北西 2 10km以上 11 67 1023
21 22:30 北東 2 10km以上 11 67 1023
21 22:00 南南東 3 10km以上 12 58 1023
21 21:30 南南東 3 10km以上 13 58 1023
21 21:00 3 10km以上 13 58 1022
21 20:30 6 10km以上 14 55 1021
21 20:00 7 10km以上 14 51 1021
21 19:30 南南東 7 10km以上 15 45 1020
21 19:00 南南東 8 10km以上 15 48 1020
21 18:30 南南東 8 10km以上 15 48 1019
21 18:00 南南東 8 10km以上 16 42 1019
21 17:30 南南東 8 10km以上 16 42 1019
21 17:00 南南東 8 10km以上 17 39 1019
21 16:30 南南東 7 10km以上 17 42 1019
21 16:00 南南東 7 10km以上 17 39 1019
21 15:30 6 10km以上 17 36 1018
21 15:00 5 10km以上 16 39 1019
21 14:30 南南東 6 10km以上 15 48 1019
21 14:00 南西 4 10km以上 16 42 1018
21 13:30 南西 7 10km以上 16 42 1018
21 13:00 8 10km以上 15 48 1018 弱いしゅう雨
21 12:30 南西 6 10km以上 14 55 1018 周辺でしゅう雨
21 12:00 7 10km以上 13 67 1018 弱いしゅう雨
21 11:30 南西 7 10km以上 16 42 1017 弱いしゅう雨
21 11:00 西南西 8 10km以上 15 41 1017
21 10:30 南西 8 10km以上 14 47 1017 弱いしゅう雨
21 10:00 南西 6 10km以上 14 44 1017 周辺でしゅう雨
21 09:42 南西 8 10km以上 15 41 1017 周辺でしゅう雨
21 09:30 西南西 6 10km以上 14 44 1016
21 09:00 西 6 10km以上 14 44 1016
21 08:30 西南西 6 10km以上 12 50 1016 弱いしゅう雨
21 08:00 西南西 6 10km以上 12 47 1015
21 07:30 西南西 6 10km以上 12 47 1015
21 07:00 西南西 6 10km以上 11 54 1015
21 06:30 西南西 6 10km以上 11 54 1014
21 06:00 西南西 5 10km以上 11 62 1014
21 05:30 西南西 5 10km以上 11 62 1014
21 05:00 西南西 5 10km以上 11 62 1013
21 04:30 西南西 5 10km以上 11 62 1013 弱いしゅう雨
21 04:00 南西 7 10km以上 12 58 1013
21 03:30 西 4 10km以上 11 67 1013
21 03:00 南西 3 10km以上 12 62 1013
21 02:30 西 4 10km以上 12 62 1012
21 02:00 西南西 4 10km以上 12 71 1012 弱いしゅう雨
21 01:30 西南西 4 10km以上 13 67 1012
21 01:00 西 3 10km以上 13 67 1012
21 00:30 西北西 3 10km以上 12 82 1012
21 00:00 西南西 3 10km以上 12 82 1012
20 23:30 西 5 10km以上 13 77 1012 弱いしゅう雨
20 23:00 西 5 10km以上 14 59 1011 弱いしゅう雨
20 22:30 西北西 6 10km以上 15 51 1011
20 22:00 西北西 6 10km以上 14 55 1011
20 21:30 西北西 6 10km以上 14 55 1010
20 21:00 西北西 7 10km以上 15 51 1010
20 20:30 西北西 6 10km以上 15 48 1010
20 20:00 西北西 6 10km以上 16 45 1010
20 19:30 西北西 7 10km以上 17 39 1010
20 19:00 西 6 10km以上 17 39 1010
20 18:30 西北西 7 10km以上 17 39 1010
20 18:00 西 8 10km以上 18 37 1009
YMHB 220600Z 16015KT CAVOK 20/09 Q1021
YMHB 220530Z 15015KT CAVOK 21/05 Q1021
YMHB 220500Z 16017KT CAVOK 21/05 Q1021
YMHB 220300Z 14014KT CAVOK 20/05 Q1022
YMHB 220200Z 15012KT 9999 FEW052 SCT300 20/05 Q1023 RF00.0/000.0
YMHB 220130Z 35007KT CAVOK 20/02 Q1023
YMHB 220100Z 33008KT 310V010 CAVOK 19/02 Q1023 RF00.0/000.0
YMHB 220000Z 35009KT CAVOK 18/02 Q1024
YMHB 212330Z 32010KT CAVOK 16/03 Q1024
YMHB 212300Z 33010KT CAVOK 15/03 Q1024
YMHB 212130Z 31007KT CAVOK 11/04 Q1024
YMHB 212100Z 32006KT CAVOK 10/04 Q1024
YMHB 212000Z 33007KT 9999 FEW055 08/05 Q1024
YMHB 211930Z 32006KT 9999 FEW055 08/04 Q1023
YMHB 211830Z AUTO 31006KT 9999 // NCD 08/03 Q1023 RF00.0/000.2
YMHB 211800Z AUTO 29007KT 9999 // NCD 08/04 Q1023 RF00.0/000.2
YMHB 211730Z AUTO 33007KT 9999 // NCD 08/05 Q1023 RF00.0/000.2
YMHB 211700Z AUTO 33007KT 9999 // NCD 09/04 Q1023 RF00.0/000.2
YMHB 211630Z AUTO 32007KT 9999 // NCD 09/04 Q1023 RF00.0/000.2
YMHB 211600Z AUTO 32008KT 9999 // NCD 09/05 Q1023 RF00.0/000.2
YMHB 211530Z AUTO 32006KT 9999 // NCD 09/05 Q1023 RF00.0/000.2
YMHB 211500Z AUTO 32007KT 9999 // NCD 09/05 Q1023 RF00.0/000.2
YMHB 211430Z AUTO 34003KT 9999 // NCD 10/05 Q1023 RF00.0/000.2
YMHB 211400Z AUTO 31007KT 9999 // NCD 10/05 Q1023 RF00.0/000.2
YMHB 211330Z AUTO 32007KT 9999 // NCD 10/06 Q1023 RF00.0/000.2
YMHB 211300Z AUTO 31005KT 9999 // NCD 11/05 Q1023 RF00.0/000.2
YMHB 211230Z 32004KT CAVOK 11/05 Q1023
YMHB 211200Z 30004KT CAVOK 11/05 Q1023
YMHB 211130Z 05003KT 9999 FEW050 SCT300 11/05 Q1023 RF00.0/000.2
YMHB 211100Z 16006KT 9999 FEW050 BKN300 12/04 Q1023 RF00.0/000.2
YMHB 211030Z 15006KT 9999 FEW040 BKN300 13/05 Q1023 RF00.0/000.2
YMHB 211000Z 17005KT 9999 FEW040 BKN300 13/05 Q1022 RF00.0/000.2
YMHB 210930Z 17011KT 9999 FEW040 BKN300 14/05 Q1021 RF00.0/000.2
YMHB 210900Z 17013KT 9999 FEW050 BKN300 14/04 Q1021 RF00.0/000.2
YMHB 210830Z 16014KT 9999 FEW050 BKN300 15/03 Q1020 RF00.0/000.2
YMHB 210800Z 15015KT 9999 FEW050 BKN300 15/04 Q1020 RF00.0/000.2
YMHB 210730Z 15016KT 9999 FEW050 SCT300 15/04 Q1019 RF00.0/000.2
YMHB 210700Z 15015KT 9999 FEW050 16/03 Q1019
YMHB 210630Z 15016KT 9999 FEW050 16/03 Q1019
YMHB 210600Z 15016KT 9999 FEW050 17/03 Q1019
YMHB 210530Z 15014KT 9999 FEW050 SCT066 17/04 Q1019 RF00.0/000.2
YMHB 210500Z 16013KT 150V220 9999 FEW050 SCT059 17/03 Q1019
YMHB 210430Z 17011KT 160V220 9999 FEW050 SCT063 17/02 Q1018
YMHB 210400Z 18010KT 150V230 9999 FEW045 SCT060 16/02 Q1019
YMHB 210330Z 15011KT 9999 FEW045 SCT052 15/04 Q1019 RF00.0/000.2
YMHB 210300Z 23008KT 190V270 9999 FEW040 SCT056 16/03 Q1018
YMHB 210230Z 23014KT 9999 SCT036 BKN056 16/03 Q1018 RF00.0/000.2
YMHB 210200Z 19015KT 9999 -SHRA SCT038 BKN056 15/04 Q1018 RF00.0/000.2
YMHB 210130Z 22012KT 9999 VCSH FEW036 SCT060 14/05 Q1018 RF00.0/000.2
YMHB 210100Z 19014KT 9999 -SHRA BKN036 BKN058 13/07 Q1018 RF00.0/000.2
YMHB 210030Z 23014KT 9999 -SHRA BKN038 BKN058 16/03 Q1017 RF00.0/000.0
YMHB 210000Z 25016KT 9999 SCT040 15/02 Q1017
YMHB 202330Z 22016KT 9999 -SHRA SCT038 SCT058 BKN300 14/03 Q1017
YMHB 202300Z 23012KT 9999 VCSH SCT038 SCT060 BKN300 14/02 Q1017
YMHB 202242Z 23016G26KT 9999 VCSH SCT037 BKN300 15/02 Q1017
YMHB 202230Z 24011KT 9999 FEW035 BKN300 14/02 Q1016 RF00.0/000.0
YMHB 202200Z 27012KT 220V290 9999 FEW036 SCT300 14/02 Q1016
YMHB 202130Z 24011KT 9999 -SHRA FEW038 BKN060 12/02 Q1016 RF00.0/000.0
YMHB 202100Z 25012KT 9999 FEW037 SCT070 12/01 Q1015 RF00.0/000.0
YMHB 202030Z 24012KT 9999 FEW038 12/01 Q1015
YMHB 202000Z 25011KT 9999 FEW035 11/02 Q1015
YMHB 201930Z 25011KT 9999 FEW030 11/02 Q1014
YMHB 201900Z 24010KT 9999 FEW025 11/04 Q1014
YMHB 201830Z AUTO 24009KT 9999 // SCT057 11/04 Q1014 RF00.0/000.0
YMHB 201800Z AUTO 24010KT 9999 // BKN061 11/04 Q1013 RF00.0/000.0
YMHB 201730Z AUTO 24009KT 9999 -SHRA SCT047 OVC059 OVC068 11/04 Q1013
YMHB 201700Z AUTO 23013KT 9999 // SCT052 SCT066 BKN075 12/04 Q1013
YMHB 201630Z AUTO 26007KT 9999 // SCT035 BKN060 BKN068 11/05 Q1013
YMHB 201600Z AUTO 23005KT 170V270 9999 // SCT034 BKN054 BKN066 12/05 Q1013
YMHB 201530Z AUTO 26007KT 9999 // BKN063 12/05 Q1012 RF00.0/000.0
YMHB 201500Z AUTO 25007KT 9999 -SHRA SCT041 SCT048 BKN059 12/07 Q1012
YMHB 201430Z AUTO 25007KT 9999 // SCT030 SCT035 OVC063 13/07 Q1012
YMHB 201400Z AUTO 26006KT 9999 // OVC058 13/07 Q1012 RF00.0/000.0
YMHB 201330Z AUTO 29006KT 9999 // BKN060 OVC075 12/09 Q1012
YMHB 201300Z AUTO 24005KT 9999 // SCT045 SCT057 BKN077 12/09 Q1012
YMHB 201230Z 26009KT 9999 -SHRA SCT038 BKN045 13/09 Q1012 RF00.0/000.0
YMHB 201200Z 28009KT 9999 -SHRA SCT040 BKN050 14/06 Q1011 RF00.0/000.0
YMHB 201130Z 29012KT 9999 FEW040 BKN055 15/05 Q1011 RF00.0/000.0
YMHB 201100Z 30011KT 9999 FEW040 SCT090 14/05 Q1011 RF00.0/000.0
YMHB 201030Z 30012KT 9999 FEW040 14/05 Q1010
YMHB 201000Z 30014KT 9999 FEW040 15/05 Q1010
YMHB 200930Z 30011KT 9999 FEW040 SCT060 15/04 Q1010 RF00.0/000.0
YMHB 200900Z 30011KT 9999 FEW040 SCT060 16/04 Q1010 RF00.0/000.0
YMHB 200830Z 29013KT 9999 FEW040 SCT053 17/03 Q1010 RF00.0/000.0
YMHB 200800Z 28012KT 9999 FEW040 BKN053 17/03 Q1010 RF00.0/000.0
YMHB 200730Z 29014KT 9999 FEW040 BKN053 17/03 Q1010 RF00.0/000.0
YMHB 200700Z 28015KT 9999 FEW040 BKN050 18/03 Q1009 RF00.0/000.0